createdAt,value
2019-05-29T00:00:37.901Z,46.95
2019-05-29T00:01:37.886Z,46.95
2019-05-29T00:02:37.877Z,46.75
2019-05-29T00:03:37.870Z,46.35
2019-05-29T00:04:37.858Z,46.55
2019-05-29T00:05:37.846Z,46.65
2019-05-29T00:06:37.834Z,46.95
2019-05-29T00:07:37.823Z,46.25
2019-05-29T00:08:37.818Z,46.55
2019-05-29T00:09:37.808Z,46.45
2019-05-29T00:10:37.791Z,45.95
2019-05-29T00:11:37.777Z,46.35
2019-05-29T00:12:37.767Z,46.45
2019-05-29T00:13:37.757Z,46.25
2019-05-29T00:14:37.752Z,46.95
2019-05-29T00:15:37.733Z,46.05
2019-05-29T00:16:37.726Z,46.35
2019-05-29T00:17:37.718Z,46.35
2019-05-29T00:18:37.704Z,46.35
2019-05-29T00:19:37.690Z,46.65
2019-05-29T00:20:37.698Z,46.45
2019-05-29T00:21:37.671Z,46.35
2019-05-29T00:22:37.662Z,46.65
2019-05-29T00:23:37.647Z,46.55
2019-05-29T00:24:37.640Z,46.05
2019-05-29T00:25:37.628Z,45.95
2019-05-29T00:26:37.631Z,46.45
2019-05-29T00:27:37.604Z,45.95
2019-05-29T00:28:37.604Z,46.85
2019-05-29T00:29:37.586Z,46.15
2019-05-29T00:30:37.575Z,46.05
2019-05-29T00:31:37.570Z,46.35
2019-05-29T00:32:37.826Z,46.15
2019-05-29T00:33:37.541Z,46.15
2019-05-29T00:34:37.534Z,45.85
2019-05-29T00:35:37.542Z,46.15
2019-05-29T00:36:37.519Z,46.15
2019-05-29T00:37:37.502Z,45.97
2019-05-29T00:38:37.488Z,46.05
2019-05-29T00:39:37.478Z,46.15
2019-05-29T00:40:37.466Z,46.15
2019-05-29T00:41:37.455Z,46.05
2019-05-29T00:42:37.448Z,46.55
2019-05-29T00:43:37.441Z,46.45
2019-05-29T00:44:37.424Z,45.95
2019-05-29T00:45:37.413Z,46.25
2019-05-29T00:46:37.406Z,46.05
2019-05-29T00:47:37.393Z,46.65
2019-05-29T00:48:37.382Z,46.15
2019-05-29T00:49:37.374Z,45.95
2019-05-29T00:50:37.366Z,45.55
2019-05-29T00:51:37.350Z,45.57
2019-05-29T00:52:37.345Z,46.15
2019-05-29T00:53:37.330Z,45.75
2019-05-29T00:54:37.318Z,45.65
2019-05-29T00:55:37.308Z,45.55
2019-05-29T00:56:37.300Z,46.05
2019-05-29T00:57:37.289Z,45.65
2019-05-29T00:58:37.293Z,45.67
2019-05-29T00:59:37.266Z,46.15
2019-05-29T01:00:37.260Z,46.15
2019-05-29T01:01:37.253Z,46.25
2019-05-29T01:02:37.240Z,45.95
2019-05-29T01:03:37.226Z,46.15
2019-05-29T01:04:37.217Z,46.17
2019-05-29T01:05:37.203Z,45.95
2019-05-29T01:06:37.195Z,46.15
2019-05-29T01:07:37.181Z,46.15
2019-05-29T01:08:37.171Z,45.97
2019-05-29T01:09:37.162Z,45.97
2019-05-29T01:10:37.151Z,46.05
2019-05-29T01:11:37.138Z,46.17
2019-05-29T01:12:37.128Z,46.25
2019-05-29T01:13:37.121Z,46.25
2019-05-29T01:14:49.227Z,45.95
2019-05-29T01:15:38.093Z,46.17
2019-05-29T01:16:37.088Z,45.87
2019-05-29T01:17:37.074Z,45.97
2019-05-29T01:18:37.065Z,46.27
2019-05-29T01:19:37.057Z,46.17
2019-05-29T01:20:37.045Z,46.27
2019-05-29T01:21:37.049Z,46.37
2019-05-29T01:22:37.028Z,46.05
2019-05-29T01:23:37.013Z,45.65
2019-05-29T01:24:37.008Z,45.75
2019-05-29T01:25:36.990Z,45.65
2019-05-29T01:26:36.991Z,45.75
2019-05-29T01:27:36.991Z,46.45
2019-05-29T01:28:36.964Z,46.07
2019-05-29T01:29:36.947Z,46.45
2019-05-29T01:30:36.938Z,46.15
2019-05-29T01:31:36.929Z,45.85
2019-05-29T01:32:36.926Z,46.35
2019-05-29T01:33:36.914Z,45.67
2019-05-29T01:34:36.903Z,45.47
2019-05-29T01:35:36.886Z,45.45
2019-05-29T01:36:36.877Z,45.57
2019-05-29T01:37:36.869Z,45.67
2019-05-29T01:38:36.863Z,45.45
2019-05-29T01:39:36.845Z,45.47
2019-05-29T01:40:36.836Z,45.65
2019-05-29T01:41:36.821Z,45.47
2019-05-29T01:42:36.835Z,45.67
2019-05-29T01:43:36.800Z,45.57
2019-05-29T01:44:36.804Z,45.65
2019-05-29T01:45:36.779Z,45.37
2019-05-29T01:46:36.773Z,45.37
2019-05-29T01:47:36.767Z,45.65
2019-05-29T01:48:36.758Z,45.65
2019-05-29T01:49:36.736Z,45.57
2019-05-29T01:50:36.731Z,45.87
2019-05-29T01:51:36.716Z,45.87
2019-05-29T01:52:36.712Z,45.67
2019-05-29T01:53:36.694Z,45.37
2019-05-29T01:54:36.685Z,45.27
2019-05-29T01:55:36.674Z,45.37
2019-05-29T01:56:36.666Z,45.27
2019-05-29T01:57:36.652Z,45.27
2019-05-29T01:58:36.645Z,44.78
2019-05-29T01:59:36.633Z,44.78
2019-05-29T02:00:36.621Z,45.17
2019-05-29T02:01:36.610Z,45.17
2019-05-29T02:02:36.602Z,44.97
2019-05-29T02:03:36.606Z,44.47
2019-05-29T02:04:36.580Z,45.47
2019-05-29T02:05:36.567Z,44.97
2019-05-29T02:06:36.557Z,45.07
2019-05-29T02:07:36.553Z,44.97
2019-05-29T02:08:36.537Z,45.07
2019-05-29T02:09:36.526Z,45.47
2019-05-29T02:10:36.518Z,44.78
2019-05-29T02:11:36.513Z,45.17
2019-05-29T02:12:36.494Z,45.47
2019-05-29T02:13:36.485Z,45.07
2019-05-29T02:14:36.474Z,45.07
2019-05-29T02:15:36.463Z,45.47
2019-05-29T02:16:36.449Z,44.47
2019-05-29T02:17:36.441Z,44.57
2019-05-29T02:18:36.434Z,44.87
2019-05-29T02:19:36.418Z,44.27
2019-05-29T02:20:36.422Z,44.57
2019-05-29T02:21:36.400Z,45.27
2019-05-29T02:22:36.391Z,45.37
2019-05-29T02:23:36.379Z,44.97
2019-05-29T02:24:36.369Z,44.78
2019-05-29T02:25:36.359Z,45.07
2019-05-29T02:26:36.344Z,45.37
2019-05-29T02:27:36.335Z,45.07
2019-05-29T02:28:36.328Z,45.17
2019-05-29T02:29:36.312Z,44.97
2019-05-29T02:30:36.306Z,45.07
2019-05-29T02:31:36.295Z,45.27
2019-05-29T02:32:36.326Z,44.87
2019-05-29T02:33:36.272Z,44.35
2019-05-29T02:34:36.271Z,44.47
2019-05-29T02:35:36.250Z,45.07
2019-05-29T02:36:36.241Z,44.17
2019-05-29T02:37:36.262Z,45.47
2019-05-29T02:38:36.218Z,45.37
2019-05-29T02:39:36.209Z,45.27
2019-05-29T02:40:36.212Z,45.07
2019-05-29T02:41:36.188Z,45.27
2019-05-29T02:42:36.188Z,44.87
2019-05-29T02:43:36.167Z,44.87
2019-05-29T02:44:36.157Z,45.67
2019-05-29T02:45:53.017Z,44.67
2019-05-29T02:46:37.130Z,44.87
2019-05-29T02:47:36.126Z,45.17
2019-05-29T02:48:36.123Z,44.37
2019-05-29T02:49:36.102Z,44.47
2019-05-29T02:50:36.098Z,44.47
2019-05-29T02:51:36.080Z,45.07
2019-05-29T02:52:36.073Z,44.67
2019-05-29T02:53:36.059Z,44.37
2019-05-29T02:54:36.049Z,45.07
2019-05-29T02:55:36.040Z,44.47
2019-05-29T02:56:36.038Z,45.27
2019-05-29T02:57:36.018Z,44.78
2019-05-29T02:58:36.011Z,44.57
2019-05-29T02:59:35.997Z,45.07
2019-05-29T03:00:35.987Z,44.67
2019-05-29T03:01:35.975Z,44.47
2019-05-29T03:02:35.979Z,44.37
2019-05-29T03:03:39.749Z,44.97
2019-05-29T03:04:35.946Z,44.97
2019-05-29T03:05:35.932Z,45.07
2019-05-29T03:06:35.923Z,45.17
2019-05-29T03:07:35.931Z,45.17
2019-05-29T03:08:35.901Z,44.67
2019-05-29T03:09:35.890Z,45.17
2019-05-29T03:10:35.882Z,45.27
2019-05-29T03:11:35.869Z,45.27
2019-05-29T03:12:35.857Z,44.17
2019-05-29T03:13:35.850Z,44.37
2019-05-29T03:14:35.850Z,45.07
2019-05-29T03:15:35.992Z,45.37
2019-05-29T03:16:35.818Z,44.47
2019-05-29T03:17:35.821Z,45.47
2019-05-29T03:18:35.796Z,45.17
2019-05-29T03:19:35.798Z,44.67
2019-05-29T03:20:35.772Z,44.67
2019-05-29T03:21:35.762Z,45.17
2019-05-29T03:22:35.750Z,44.07
2019-05-29T03:23:36.515Z,45.37
2019-05-29T03:24:35.726Z,45.17
2019-05-29T03:25:37.064Z,45.17
2019-05-29T03:26:35.736Z,45.17
2019-05-29T03:27:35.695Z,44.97
2019-05-29T03:28:35.709Z,45.17
2019-05-29T03:29:35.671Z,45.07
2019-05-29T03:30:44.771Z,45.47
2019-05-29T03:31:43.453Z,44.97
2019-05-29T03:32:45.537Z,44.97
2019-05-29T03:33:45.323Z,45.17
2019-05-29T03:34:42.078Z,44.87
2019-05-29T03:35:43.453Z,44.97
2019-05-29T03:36:43.513Z,44.57
2019-05-29T03:37:36.587Z,45.47
2019-05-29T03:38:35.579Z,44.87
2019-05-29T03:39:35.567Z,44.97
2019-05-29T03:40:35.558Z,44.57
2019-05-29T03:41:35.545Z,44.97
2019-05-29T03:42:35.545Z,45.07
2019-05-29T03:43:36.197Z,45.07
2019-05-29T03:44:35.625Z,44.67
2019-05-29T03:45:36.263Z,44.97
2019-05-29T03:46:43.055Z,44.67
2019-05-29T03:47:37.170Z,45.07
2019-05-29T03:48:35.477Z,44.29
2019-05-29T03:49:37.287Z,44.57
2019-05-29T03:50:35.453Z,44.78
2019-05-29T03:51:37.184Z,45.20
2019-05-29T03:52:35.431Z,44.97
2019-05-29T03:53:36.716Z,44.89
2019-05-29T03:54:35.596Z,44.59
2019-05-29T03:55:35.954Z,44.89
2019-05-29T03:56:35.391Z,44.70
2019-05-29T03:57:35.827Z,44.97
2019-05-29T03:58:37.502Z,45.50
2019-05-29T03:59:37.344Z,45.20
2019-05-29T04:00:41.735Z,44.87
2019-05-29T04:01:37.435Z,44.89
2019-05-29T04:02:36.153Z,44.87
2019-05-29T04:03:36.003Z,44.87
2019-05-29T04:04:36.174Z,45.00
2019-05-29T04:05:35.693Z,45.09
2019-05-29T04:06:35.687Z,45.09
2019-05-29T04:07:35.693Z,44.79
2019-05-29T04:08:35.838Z,44.59
2019-05-29T04:09:35.516Z,44.97
2019-05-29T04:10:37.483Z,44.89
2019-05-29T04:11:35.626Z,44.70
2019-05-29T04:12:35.547Z,44.57
2019-05-29T04:13:36.254Z,45.07
2019-05-29T04:14:35.753Z,44.70
2019-05-29T04:15:36.526Z,44.89
2019-05-29T04:16:52.717Z,44.79
2019-05-29T04:17:37.737Z,45.09
2019-05-29T04:18:35.954Z,44.87
2019-05-29T04:19:36.883Z,43.99
2019-05-29T04:20:36.080Z,45.00
2019-05-29T04:21:36.341Z,44.89
2019-05-29T04:22:36.926Z,44.29
2019-05-29T04:23:36.204Z,44.39
2019-05-29T04:24:36.000Z,43.98
2019-05-29T04:25:39.338Z,44.37
2019-05-29T04:26:36.259Z,44.57
2019-05-29T04:27:35.974Z,44.39
2019-05-29T04:28:36.769Z,43.99
2019-05-29T04:29:36.103Z,44.59
2019-05-29T04:30:36.518Z,43.79
2019-05-29T04:31:36.546Z,43.59
2019-05-29T04:32:36.623Z,43.59
2019-05-29T04:33:36.652Z,43.90
2019-05-29T04:34:35.869Z,43.59
2019-05-29T04:35:36.650Z,43.67
2019-05-29T04:36:36.712Z,44.09
2019-05-29T04:37:36.789Z,43.98
2019-05-29T04:38:36.138Z,43.99
2019-05-29T04:39:36.831Z,43.07
2019-05-29T04:40:35.670Z,43.90
2019-05-29T04:41:34.913Z,43.70
2019-05-29T04:42:35.788Z,43.59
2019-05-29T04:43:35.459Z,43.07
2019-05-29T04:44:36.296Z,43.29
2019-05-29T04:45:37.362Z,43.27
2019-05-29T04:46:36.496Z,43.27
2019-05-29T04:47:35.204Z,43.79
2019-05-29T04:48:36.189Z,43.67
2019-05-29T04:49:36.161Z,43.57
2019-05-29T04:50:37.640Z,43.98
2019-05-29T04:51:35.408Z,43.98
2019-05-29T04:52:35.914Z,43.87
2019-05-29T04:53:35.525Z,43.77
2019-05-29T04:54:35.397Z,43.67
2019-05-29T04:55:34.888Z,43.67
2019-05-29T04:56:34.932Z,44.07
2019-05-29T04:57:35.011Z,44.07
2019-05-29T04:58:34.887Z,43.57
2019-05-29T04:59:34.981Z,43.27
2019-05-29T05:00:35.189Z,43.27
2019-05-29T05:01:35.078Z,43.77
2019-05-29T05:02:35.059Z,43.77
2019-05-29T05:03:35.174Z,43.07
2019-05-29T05:04:35.203Z,43.87
2019-05-29T05:05:35.316Z,43.98
2019-05-29T05:06:35.312Z,43.77
2019-05-29T05:07:35.367Z,43.77
2019-05-29T05:08:35.418Z,44.27
2019-05-29T05:09:35.431Z,44.87
2019-05-29T05:10:35.630Z,44.78
2019-05-29T05:11:35.450Z,44.97
2019-05-29T05:12:35.702Z,44.78
2019-05-29T05:13:35.569Z,45.27
2019-05-29T05:14:35.459Z,45.27
2019-05-29T05:15:35.526Z,44.67
2019-05-29T05:16:35.731Z,45.07
2019-05-29T05:17:35.917Z,45.27
2019-05-29T05:18:34.521Z,44.97
2019-05-29T05:19:34.511Z,45.17
2019-05-29T05:20:34.517Z,45.47
2019-05-29T05:21:34.489Z,45.87
2019-05-29T05:22:34.478Z,45.45
2019-05-29T05:23:34.469Z,45.57
2019-05-29T05:24:34.460Z,46.47
2019-05-29T05:25:34.446Z,45.67
2019-05-29T05:26:34.436Z,46.07
2019-05-29T05:27:34.426Z,45.67
2019-05-29T05:28:34.415Z,45.97
2019-05-29T05:29:34.423Z,45.87
2019-05-29T05:30:34.507Z,46.07
2019-05-29T05:31:34.950Z,45.97
2019-05-29T05:32:34.872Z,46.25
2019-05-29T05:33:34.530Z,45.65
2019-05-29T05:34:34.704Z,45.75
2019-05-29T05:35:34.697Z,46.27
2019-05-29T05:36:34.682Z,45.57
2019-05-29T05:37:34.715Z,46.47
2019-05-29T05:38:34.701Z,46.47
2019-05-29T05:39:35.176Z,45.95
2019-05-29T05:40:37.135Z,45.87
2019-05-29T05:41:35.275Z,46.07
2019-05-29T05:42:34.869Z,46.17
2019-05-29T05:43:34.858Z,45.77
2019-05-29T05:44:34.931Z,46.15
2019-05-29T05:45:35.106Z,45.55
2019-05-29T05:46:34.970Z,45.55
2019-05-29T05:47:45.086Z,44.87
2019-05-29T05:48:35.202Z,45.95
2019-05-29T05:49:35.370Z,46.37
2019-05-29T05:50:35.095Z,45.95
2019-05-29T05:51:38.121Z,45.75
2019-05-29T05:52:35.309Z,45.95
2019-05-29T05:53:35.308Z,45.95
2019-05-29T05:54:35.300Z,46.15
2019-05-29T05:55:35.440Z,46.05
2019-05-29T05:56:34.116Z,45.95
2019-05-29T05:57:34.109Z,45.75
2019-05-29T05:58:34.100Z,45.95
2019-05-29T05:59:34.083Z,45.65
2019-05-29T06:00:34.146Z,45.55
2019-05-29T06:01:34.061Z,45.75
2019-05-29T06:02:34.056Z,45.95
2019-05-29T06:03:34.076Z,46.45
2019-05-29T06:04:34.227Z,46.45
2019-05-29T06:05:34.047Z,46.45
2019-05-29T06:06:34.009Z,46.45
2019-05-29T06:07:34.151Z,46.25
2019-05-29T06:08:34.091Z,46.25
2019-05-29T06:09:34.190Z,46.23
2019-05-29T06:10:34.141Z,45.65
2019-05-29T06:11:34.216Z,45.95
2019-05-29T06:12:34.411Z,45.65
2019-05-29T06:13:34.165Z,45.93
2019-05-29T06:14:34.342Z,45.65
2019-05-29T06:15:34.309Z,45.45
2019-05-29T06:16:34.435Z,45.45
2019-05-29T06:17:34.424Z,45.35
2019-05-29T06:18:34.448Z,45.35
2019-05-29T06:19:34.983Z,45.55
2019-05-29T06:20:34.704Z,45.45
2019-05-29T06:21:34.643Z,45.25
2019-05-29T06:22:34.895Z,45.53
2019-05-29T06:23:34.779Z,45.43
2019-05-29T06:24:35.012Z,45.93
2019-05-29T06:25:36.289Z,45.83
2019-05-29T06:26:34.763Z,45.23
2019-05-29T06:27:35.058Z,45.83
2019-05-29T06:28:34.955Z,44.93
2019-05-29T06:29:35.130Z,44.93
2019-05-29T06:30:34.474Z,44.73
2019-05-29T06:31:33.760Z,45.23
2019-05-29T06:32:33.732Z,45.03
2019-05-29T06:33:33.718Z,45.23
2019-05-29T06:34:33.706Z,44.43
2019-05-29T06:35:34.187Z,45.33
2019-05-29T06:36:33.685Z,45.23
2019-05-29T06:37:33.700Z,44.83
2019-05-29T06:38:33.706Z,44.93
2019-05-29T06:39:33.659Z,44.13
2019-05-29T06:40:34.042Z,44.13
2019-05-29T06:41:33.680Z,45.01
2019-05-29T06:42:33.636Z,44.13
2019-05-29T06:43:33.825Z,45.23
2019-05-29T06:44:34.294Z,44.13
2019-05-29T06:45:33.782Z,45.73
2019-05-29T06:46:34.359Z,44.91
2019-05-29T06:47:34.238Z,45.13
2019-05-29T06:48:52.081Z,44.11
2019-05-29T06:49:34.554Z,45.03
2019-05-29T06:50:33.540Z,44.73
2019-05-29T06:51:33.523Z,44.71
2019-05-29T06:52:33.511Z,45.13
2019-05-29T06:53:33.504Z,45.13
2019-05-29T06:54:33.503Z,44.93
2019-05-29T06:55:33.484Z,45.01
2019-05-29T06:56:33.470Z,44.63
2019-05-29T06:57:33.471Z,45.31
2019-05-29T06:58:33.447Z,44.61
2019-05-29T06:59:33.439Z,44.61
2019-05-29T07:00:35.699Z,44.51
2019-05-29T07:01:33.449Z,44.41
2019-05-29T07:02:33.412Z,44.51
2019-05-29T07:03:33.398Z,44.81
2019-05-29T07:04:33.383Z,44.91
2019-05-29T07:05:33.375Z,44.91
2019-05-29T07:06:33.393Z,44.91
2019-05-29T07:07:33.351Z,45.01
2019-05-29T07:08:38.686Z,45.01
2019-05-29T07:09:34.352Z,44.61
2019-05-29T07:10:33.328Z,44.81
2019-05-29T07:11:33.309Z,44.71
2019-05-29T07:12:33.297Z,45.01
2019-05-29T07:13:35.167Z,44.81
2019-05-29T07:14:33.278Z,44.81
2019-05-29T07:15:33.266Z,45.01
2019-05-29T07:16:43.706Z,44.61
2019-05-29T07:17:34.245Z,44.91
2019-05-29T07:18:33.251Z,44.61
2019-05-29T07:19:47.551Z,44.61
2019-05-29T07:20:34.210Z,44.31
2019-05-29T07:21:33.204Z,44.31
2019-05-29T07:22:33.197Z,44.21
2019-05-29T07:23:33.185Z,44.21
2019-05-29T07:24:33.187Z,44.51
2019-05-29T07:25:33.178Z,44.41
2019-05-29T07:26:33.145Z,44.31
2019-05-29T07:27:33.134Z,44.31
2019-05-29T07:28:33.121Z,44.61
2019-05-29T07:29:33.116Z,44.91
2019-05-29T07:30:33.107Z,45.01
2019-05-29T07:31:33.089Z,45.01
2019-05-29T07:32:33.086Z,44.61
2019-05-29T07:33:33.092Z,45.01
2019-05-29T07:34:49.639Z,45.01
2019-05-29T07:35:34.045Z,44.81
2019-05-29T07:36:33.035Z,44.91
2019-05-29T07:37:33.121Z,44.61
2019-05-29T07:38:33.022Z,45.01
2019-05-29T07:39:33.003Z,44.31
2019-05-29T07:40:35.733Z,44.51
2019-05-29T07:41:32.988Z,45.01
2019-05-29T07:42:32.977Z,45.01
2019-05-29T07:43:32.961Z,44.81
2019-05-29T07:44:32.954Z,44.81
2019-05-29T07:45:32.954Z,44.71
2019-05-29T07:46:32.940Z,43.51
2019-05-29T07:47:32.942Z,43.61
2019-05-29T07:48:32.914Z,43.71
2019-05-29T07:49:39.238Z,43.21
2019-05-29T07:50:33.888Z,43.41
2019-05-29T07:51:33.171Z,43.69
2019-05-29T07:52:32.883Z,43.29
2019-05-29T07:53:33.780Z,43.61
2019-05-29T07:54:32.848Z,42.69
2019-05-29T07:55:32.840Z,42.61
2019-05-29T07:56:32.823Z,43.21
2019-05-29T07:57:32.869Z,43.09
2019-05-29T07:58:32.813Z,42.32
2019-05-29T07:59:32.787Z,42.41
2019-05-29T08:00:35.752Z,42.40
2019-05-29T08:01:33.769Z,42.11
2019-05-29T08:02:32.759Z,41.99
2019-05-29T08:03:32.749Z,42.32
2019-05-29T08:04:32.735Z,41.80
2019-05-29T08:05:32.726Z,41.89
2019-05-29T08:06:32.714Z,42.29
2019-05-29T08:07:32.708Z,42.61
2019-05-29T08:08:32.694Z,42.21
2019-05-29T08:09:32.685Z,42.40
2019-05-29T08:10:32.692Z,42.51
2019-05-29T08:11:32.666Z,42.10
2019-05-29T08:12:32.653Z,42.49
2019-05-29T08:13:32.646Z,42.41
2019-05-29T08:14:32.652Z,41.69
2019-05-29T08:15:32.614Z,42.40
2019-05-29T08:16:32.604Z,42.51
2019-05-29T08:17:32.594Z,41.91
2019-05-29T08:18:32.584Z,41.80
2019-05-29T08:19:32.572Z,41.80
2019-05-29T08:20:32.563Z,41.99
2019-05-29T08:21:32.550Z,42.29
2019-05-29T08:22:34.575Z,42.59
2019-05-29T08:23:32.541Z,42.40
2019-05-29T08:24:32.517Z,42.49
2019-05-29T08:25:32.505Z,41.99
2019-05-29T08:26:32.495Z,42.49
2019-05-29T08:27:32.483Z,42.59
2019-05-29T08:28:32.473Z,42.79
2019-05-29T08:29:32.461Z,43.39
2019-05-29T08:30:32.455Z,42.79
2019-05-29T08:31:32.447Z,43.29
2019-05-29T08:32:32.439Z,42.89
2019-05-29T08:33:32.442Z,42.89
2019-05-29T08:34:32.409Z,42.99
2019-05-29T08:35:32.402Z,42.79
2019-05-29T08:36:32.427Z,42.99
2019-05-29T08:37:32.380Z,42.69
2019-05-29T08:38:32.384Z,42.89
2019-05-29T08:39:36.480Z,42.87
2019-05-29T08:40:32.345Z,43.09
2019-05-29T08:41:32.332Z,41.60
2019-05-29T08:42:32.322Z,42.49
2019-05-29T08:43:32.312Z,42.59
2019-05-29T08:44:32.299Z,42.59
2019-05-29T08:45:32.289Z,42.29
2019-05-29T08:46:33.430Z,41.89
2019-05-29T08:47:32.275Z,42.37
2019-05-29T08:48:32.257Z,42.67
2019-05-29T08:49:32.245Z,42.97
2019-05-29T08:50:32.232Z,42.77
2019-05-29T08:51:32.221Z,43.19
2019-05-29T08:52:32.214Z,42.49
2019-05-29T08:53:32.202Z,42.40
2019-05-29T08:54:32.192Z,42.99
2019-05-29T08:55:32.181Z,43.19
2019-05-29T08:56:32.192Z,43.37
2019-05-29T08:57:32.159Z,42.57
2019-05-29T08:58:32.150Z,42.87
2019-05-29T08:59:32.136Z,42.87
2019-05-29T09:00:32.131Z,42.47
2019-05-29T09:01:32.117Z,42.77
2019-05-29T09:02:32.102Z,42.87
2019-05-29T09:03:32.095Z,42.57
2019-05-29T09:04:32.085Z,42.77
2019-05-29T09:05:32.069Z,42.77
2019-05-29T09:06:32.060Z,42.67
2019-05-29T09:07:32.050Z,42.89
2019-05-29T09:08:32.040Z,42.77
2019-05-29T09:09:32.030Z,42.67
2019-05-29T09:10:32.020Z,42.59
2019-05-29T09:11:32.010Z,42.99
2019-05-29T09:12:31.994Z,42.89
2019-05-29T09:13:31.983Z,42.97
2019-05-29T09:14:31.972Z,42.87
2019-05-29T09:15:31.967Z,42.57
2019-05-29T09:16:31.956Z,42.67
2019-05-29T09:17:34.451Z,42.77
2019-05-29T09:18:31.929Z,42.79
2019-05-29T09:19:31.916Z,42.79
2019-05-29T09:20:57.401Z,42.67
2019-05-29T09:21:32.895Z,42.77
2019-05-29T09:22:31.887Z,42.67
2019-05-29T09:23:31.876Z,42.77
2019-05-29T09:24:31.867Z,42.77
2019-05-29T09:25:31.856Z,42.77
2019-05-29T09:26:31.841Z,43.39
2019-05-29T09:27:31.831Z,42.79
2019-05-29T09:28:31.818Z,43.69
2019-05-29T09:29:31.813Z,43.07
2019-05-29T09:30:31.797Z,43.39
2019-05-29T09:31:31.788Z,42.40
2019-05-29T09:32:48.495Z,43.19
2019-05-29T09:33:32.762Z,42.67
2019-05-29T09:34:31.753Z,43.39
2019-05-29T09:35:31.754Z,43.39
2019-05-29T09:36:31.735Z,42.67
2019-05-29T09:37:31.720Z,43.19
2019-05-29T09:38:31.710Z,42.79
2019-05-29T09:39:31.709Z,43.29
2019-05-29T09:40:31.688Z,43.27
2019-05-29T09:41:31.679Z,43.29
2019-05-29T09:42:31.668Z,43.39
2019-05-29T09:43:31.654Z,43.29
2019-05-29T09:44:38.768Z,43.29
2019-05-29T09:45:32.634Z,42.79
2019-05-29T09:46:31.631Z,43.19
2019-05-29T09:47:31.616Z,43.19
2019-05-29T09:48:31.600Z,43.39
2019-05-29T09:49:31.588Z,43.29
2019-05-29T09:50:48.800Z,43.29
2019-05-29T09:51:32.574Z,43.39
2019-05-29T09:52:31.573Z,42.99
2019-05-29T09:53:31.546Z,42.79
2019-05-29T09:54:31.728Z,43.07
2019-05-29T09:55:31.531Z,43.09
2019-05-29T09:56:31.515Z,42.79
2019-05-29T09:57:31.504Z,42.79
2019-05-29T09:58:31.497Z,42.40
2019-05-29T09:59:31.485Z,42.79
2019-05-29T10:00:31.467Z,43.29
2019-05-29T10:01:31.457Z,43.29
2019-05-29T10:02:31.446Z,43.39
2019-05-29T10:03:31.444Z,43.09
2019-05-29T10:04:31.429Z,42.99
2019-05-29T10:05:31.416Z,42.89
2019-05-29T10:06:31.402Z,42.79
2019-05-29T10:07:31.507Z,42.79
2019-05-29T10:08:31.383Z,43.29
2019-05-29T10:09:31.378Z,43.19
2019-05-29T10:10:31.365Z,42.99
2019-05-29T10:11:31.350Z,42.49
2019-05-29T10:12:31.348Z,42.79
2019-05-29T10:13:31.330Z,42.79
2019-05-29T10:14:31.314Z,42.69
2019-05-29T10:15:31.307Z,41.50
2019-05-29T10:16:31.291Z,42.69
2019-05-29T10:17:31.281Z,42.29
2019-05-29T10:18:32.879Z,41.99
2019-05-29T10:19:31.260Z,41.89
2019-05-29T10:20:31.248Z,42.40
2019-05-29T10:21:40.210Z,42.49
2019-05-29T10:22:32.226Z,42.69
2019-05-29T10:23:31.217Z,42.40
2019-05-29T10:24:32.493Z,43.09
2019-05-29T10:25:31.194Z,42.69
2019-05-29T10:26:31.184Z,43.19
2019-05-29T10:27:31.172Z,42.69
2019-05-29T10:28:49.322Z,42.79
2019-05-29T10:29:32.150Z,43.19
2019-05-29T10:30:31.144Z,43.29
2019-05-29T10:31:31.127Z,43.19
2019-05-29T10:32:31.119Z,43.09
2019-05-29T10:33:31.117Z,42.79
2019-05-29T10:34:31.097Z,42.79
2019-05-29T10:35:31.084Z,43.09
2019-05-29T10:36:31.072Z,42.59
2019-05-29T10:37:31.065Z,42.89
2019-05-29T10:38:31.061Z,42.69
2019-05-29T10:39:31.044Z,42.69
2019-05-29T10:40:31.259Z,43.29
2019-05-29T10:41:31.018Z,43.49
2019-05-29T10:42:31.008Z,44.49
2019-05-29T10:43:34.553Z,44.59
2019-05-29T10:44:30.989Z,44.89
2019-05-29T10:45:30.976Z,43.99
2019-05-29T10:46:30.964Z,44.89
2019-05-29T10:47:30.951Z,44.29
2019-05-29T10:48:31.715Z,45.29
2019-05-29T10:49:31.230Z,44.69
2019-05-29T10:50:31.125Z,44.69
2019-05-29T10:51:31.384Z,45.09
2019-05-29T10:52:31.541Z,45.18
2019-05-29T10:53:31.035Z,44.09
2019-05-29T10:54:31.376Z,44.96
2019-05-29T10:55:30.884Z,44.99
2019-05-29T10:56:30.935Z,44.96
2019-05-29T10:57:30.935Z,45.36
2019-05-29T10:58:47.654Z,45.29
2019-05-29T10:59:32.231Z,44.99
2019-05-29T11:00:31.029Z,45.39
2019-05-29T11:01:31.204Z,45.36
2019-05-29T11:02:31.034Z,45.17
2019-05-29T11:03:30.879Z,44.17
2019-05-29T11:04:31.583Z,44.27
2019-05-29T11:05:31.602Z,44.46
2019-05-29T11:06:30.783Z,45.26
2019-05-29T11:07:30.767Z,45.06
2019-05-29T11:08:30.729Z,44.57
2019-05-29T11:09:43.416Z,44.84
2019-05-29T11:10:31.836Z,44.67
2019-05-29T11:11:30.697Z,44.67
2019-05-29T11:12:31.052Z,45.14
2019-05-29T11:13:31.026Z,45.04
2019-05-29T11:14:30.664Z,45.44
2019-05-29T11:15:31.087Z,44.94
2019-05-29T11:16:30.646Z,44.65
2019-05-29T11:17:31.215Z,44.54
2019-05-29T11:18:30.894Z,44.45
2019-05-29T11:19:30.608Z,44.35
2019-05-29T11:20:30.597Z,43.85
2019-05-29T11:21:30.875Z,44.74
2019-05-29T11:22:30.573Z,44.84
2019-05-29T11:23:30.565Z,45.14
2019-05-29T11:24:30.551Z,44.24
2019-05-29T11:25:30.540Z,44.05
2019-05-29T11:26:30.574Z,44.94
2019-05-29T11:27:30.525Z,44.84
2019-05-29T11:28:30.511Z,44.94
2019-05-29T11:29:30.508Z,45.04
2019-05-29T11:30:30.491Z,45.34
2019-05-29T11:31:30.505Z,45.14
2019-05-29T11:32:30.468Z,45.54
2019-05-29T11:33:30.459Z,44.54
2019-05-29T11:34:30.452Z,44.84
2019-05-29T11:35:30.434Z,44.65
2019-05-29T11:36:30.422Z,44.94
2019-05-29T11:37:30.412Z,45.42
2019-05-29T11:38:30.417Z,45.32
2019-05-29T11:39:30.450Z,45.12
2019-05-29T11:40:30.790Z,45.02
2019-05-29T11:41:30.371Z,44.92
2019-05-29T11:42:30.406Z,44.82
2019-05-29T11:43:30.350Z,44.82
2019-05-29T11:44:30.346Z,44.72
2019-05-29T11:45:30.426Z,44.82
2019-05-29T11:46:30.332Z,44.92
2019-05-29T11:47:30.320Z,44.80
2019-05-29T11:48:30.299Z,45.30
2019-05-29T11:49:30.289Z,44.80
2019-05-29T11:50:30.273Z,45.30
2019-05-29T11:51:30.265Z,44.31
2019-05-29T11:52:42.302Z,45.00
2019-05-29T11:53:31.241Z,44.80
2019-05-29T11:54:30.236Z,44.01
2019-05-29T11:55:30.432Z,44.31
2019-05-29T11:56:30.210Z,44.50
2019-05-29T11:57:30.231Z,44.40
2019-05-29T11:58:31.710Z,45.30
2019-05-29T11:59:30.183Z,44.50
2019-05-29T12:00:30.167Z,44.40
2019-05-29T12:01:48.629Z,45.20
2019-05-29T12:02:31.146Z,45.00
2019-05-29T12:03:30.139Z,44.90
2019-05-29T12:04:30.131Z,44.70
2019-05-29T12:05:30.116Z,43.01
2019-05-29T12:06:30.104Z,42.31
2019-05-29T12:07:30.147Z,43.80
2019-05-29T12:08:30.084Z,43.59
2019-05-29T12:09:33.323Z,43.51
2019-05-29T12:10:30.064Z,43.49
2019-05-29T12:11:30.052Z,43.49
2019-05-29T12:12:30.053Z,44.50
2019-05-29T12:13:30.037Z,43.51
2019-05-29T12:14:30.026Z,43.41
2019-05-29T12:15:30.010Z,43.59
2019-05-29T12:16:30.007Z,43.59
2019-05-29T12:17:29.996Z,43.41
2019-05-29T12:18:29.975Z,42.99
2019-05-29T12:19:29.971Z,43.49
2019-05-29T12:20:29.963Z,43.38
2019-05-29T12:21:29.947Z,43.59
2019-05-29T12:22:29.939Z,43.49
2019-05-29T12:23:29.922Z,43.19
2019-05-29T12:24:29.917Z,43.38
2019-05-29T12:25:29.917Z,42.69
2019-05-29T12:26:29.897Z,42.79
2019-05-29T12:27:29.881Z,42.79
2019-05-29T12:28:29.963Z,42.49
2019-05-29T12:29:29.857Z,43.29
2019-05-29T12:30:29.847Z,43.19
2019-05-29T12:31:29.836Z,42.79
2019-05-29T12:32:29.834Z,43.19
2019-05-29T12:33:29.818Z,42.89
2019-05-29T12:34:29.804Z,43.29
2019-05-29T12:35:29.806Z,43.29
2019-05-29T12:36:29.784Z,42.59
2019-05-29T12:37:29.778Z,42.69
2019-05-29T12:38:29.765Z,42.69
2019-05-29T12:39:29.751Z,42.86
2019-05-29T12:40:29.740Z,43.07
2019-05-29T12:41:29.732Z,43.46
2019-05-29T12:42:29.821Z,42.97
2019-05-29T12:43:29.732Z,42.47
2019-05-29T12:44:29.708Z,42.47
2019-05-29T12:45:29.692Z,42.57
2019-05-29T12:46:29.675Z,43.07
2019-05-29T12:47:29.667Z,42.57
2019-05-29T12:48:29.658Z,42.47
2019-05-29T12:49:29.644Z,42.86
2019-05-29T12:50:34.212Z,42.97
2019-05-29T12:51:30.697Z,42.57
2019-05-29T12:52:29.609Z,42.37